createdAt,value
2022-12-17T00:00:51.593Z,44.05
2022-12-17T00:03:37.691Z,43.10
2022-12-17T00:06:22.977Z,42.30
2022-12-17T00:09:08.223Z,47.63
2022-12-17T00:11:53.860Z,45.45
2022-12-17T00:14:41.288Z,51.63
2022-12-17T00:17:26.583Z,46.17
2022-12-17T00:20:11.843Z,51.33
2022-12-17T00:22:57.047Z,52.92
2022-12-17T00:25:44.501Z,45.17
2022-12-17T00:28:31.419Z,50.20
2022-12-17T00:31:17.510Z,47.83
2022-12-17T00:34:03.338Z,46.35
2022-12-17T00:36:48.392Z,51.10
2022-12-17T00:39:33.559Z,52.85
2022-12-17T00:42:18.747Z,48.75
2022-12-17T00:45:04.054Z,53.90
2022-12-17T00:47:48.990Z,45.47
2022-12-17T00:50:34.826Z,44.05
2022-12-17T00:53:20.863Z,48.50
2022-12-17T00:56:05.865Z,50.78
2022-12-17T00:58:51.767Z,54.63
2022-12-17T01:01:37.263Z,54.78
2022-12-17T01:04:23.302Z,49.25
2022-12-17T01:07:08.665Z,52.13
2022-12-17T01:09:53.919Z,45.35
2022-12-17T01:12:39.306Z,44.45
2022-12-17T01:15:25.646Z,42.75
2022-12-17T01:18:10.977Z,47.35
2022-12-17T01:21:10.192Z,46.55
2022-12-17T01:23:55.315Z,43.17
2022-12-17T01:26:41.368Z,44.22
2022-12-17T01:29:26.746Z,43.75
2022-12-17T01:32:12.011Z,46.13
2022-12-17T01:34:57.192Z,46.10
2022-12-17T01:37:42.249Z,50.60
2022-12-17T01:40:42.846Z,43.53
2022-12-17T01:43:31.499Z,44.60
2022-12-17T01:46:17.439Z,51.15
2022-12-17T01:49:06.313Z,44.25
2022-12-17T01:51:52.575Z,43.67
2022-12-17T01:54:38.265Z,50.65
2022-12-17T01:57:25.594Z,39.45
2022-12-17T02:00:26.817Z,38.20
2022-12-17T02:03:12.587Z,44.28
2022-12-17T02:06:25.249Z,47.38
2022-12-17T02:09:34.584Z,41.05
2022-12-17T02:12:34.398Z,41.95
2022-12-17T02:15:50.749Z,44.97
2022-12-17T02:18:48.935Z,42.10
2022-12-17T02:21:34.114Z,41.38
2022-12-17T02:24:52.868Z,42.13
2022-12-17T02:27:38.700Z,45.30
2022-12-17T02:30:26.429Z,43.80
2022-12-17T02:33:13.048Z,38.67
2022-12-17T02:36:03.795Z,44.30
2022-12-17T02:38:50.709Z,42.97
2022-12-17T02:41:43.036Z,49.03
2022-12-17T02:44:31.920Z,39.60
2022-12-17T02:47:18.631Z,46.53
2022-12-17T02:50:03.863Z,38.97
2022-12-17T02:52:51.854Z,46.40
2022-12-17T02:55:37.077Z,52.35
2022-12-17T02:58:22.302Z,43.60
2022-12-17T03:01:07.610Z,42.53
2022-12-17T03:03:52.801Z,43.75
2022-12-17T03:06:37.967Z,38.97
2022-12-17T03:09:23.047Z,40.60
2022-12-17T03:12:08.238Z,41.00
2022-12-17T03:14:53.554Z,47.67
2022-12-17T03:17:38.843Z,38.42
2022-12-17T03:20:25.076Z,49.83
2022-12-17T03:23:10.159Z,49.30
2022-12-17T03:25:55.341Z,46.17
2022-12-17T03:28:40.409Z,46.10
2022-12-17T03:31:25.588Z,44.92
2022-12-17T03:34:10.995Z,42.95
2022-12-17T03:36:56.150Z,45.75
2022-12-17T03:39:41.335Z,43.33
2022-12-17T03:42:26.604Z,42.03
2022-12-17T03:45:11.880Z,40.65
2022-12-17T03:47:56.867Z,53.60
2022-12-17T03:50:42.180Z,43.58
2022-12-17T03:53:27.259Z,42.75
2022-12-17T03:56:12.432Z,40.90
2022-12-17T03:58:57.617Z,47.33
2022-12-17T04:01:43.458Z,42.55
2022-12-17T04:04:28.749Z,46.55
2022-12-17T04:07:13.831Z,45.22
2022-12-17T04:09:59.537Z,44.90
2022-12-17T04:12:44.650Z,39.55
2022-12-17T04:15:30.026Z,45.78
2022-12-17T04:18:15.408Z,41.72
2022-12-17T04:21:00.405Z,40.28
2022-12-17T04:23:45.673Z,39.30
2022-12-17T04:26:30.872Z,42.35
2022-12-17T04:29:16.071Z,38.75
2022-12-17T04:32:01.282Z,44.97
2022-12-17T04:34:46.555Z,50.72
2022-12-17T04:37:31.784Z,47.50
2022-12-17T04:40:16.961Z,47.47
2022-12-17T04:43:02.299Z,45.35
2022-12-17T04:45:47.389Z,50.40
2022-12-17T04:48:32.479Z,47.35
2022-12-17T04:51:17.576Z,49.72
2022-12-17T04:54:02.850Z,49.50
2022-12-17T04:56:48.009Z,50.13
2022-12-17T04:59:33.093Z,43.53
2022-12-17T05:02:18.455Z,49.20
2022-12-17T05:05:03.740Z,47.70
2022-12-17T05:07:48.824Z,41.40
2022-12-17T05:10:34.550Z,48.53
2022-12-17T05:13:20.732Z,44.17
2022-12-17T05:16:06.507Z,47.25
2022-12-17T05:18:51.616Z,44.50
2022-12-17T05:21:36.814Z,42.58
2022-12-17T05:24:22.281Z,41.53
2022-12-17T05:27:07.374Z,42.78
2022-12-17T05:29:52.715Z,42.08
2022-12-17T05:32:37.816Z,42.33
2022-12-17T05:35:23.597Z,41.03
2022-12-17T05:38:08.682Z,45.55
2022-12-17T05:40:53.936Z,44.30
2022-12-17T05:43:39.460Z,47.00
2022-12-17T05:46:24.765Z,43.42
2022-12-17T05:49:10.048Z,41.10
2022-12-17T05:51:55.162Z,42.42
2022-12-17T05:54:40.462Z,41.65
2022-12-17T05:57:25.546Z,41.55
2022-12-17T06:00:10.782Z,34.55
2022-12-17T06:02:56.089Z,45.13
2022-12-17T06:05:41.335Z,41.20
2022-12-17T06:08:28.297Z,38.92
2022-12-17T06:11:17.215Z,36.22
2022-12-17T06:14:02.909Z,40.28
2022-12-17T06:16:48.236Z,42.92
2022-12-17T06:19:33.399Z,34.35
2022-12-17T06:22:19.645Z,31.42
2022-12-17T06:25:04.822Z,33.58
2022-12-17T06:27:50.155Z,30.52
2022-12-17T06:30:35.433Z,32.42
2022-12-17T06:33:26.335Z,28.73
2022-12-17T06:36:21.327Z,28.58
2022-12-17T06:39:07.503Z,28.15
2022-12-17T06:41:52.589Z,25.08
2022-12-17T06:44:37.878Z,24.73
2022-12-17T06:47:22.957Z,26.40
2022-12-17T06:50:08.147Z,29.50
2022-12-17T06:52:53.519Z,27.02
2022-12-17T06:55:38.681Z,29.48
2022-12-17T06:58:24.274Z,28.02
2022-12-17T07:01:10.050Z,25.63
2022-12-17T07:03:55.368Z,24.75
2022-12-17T07:06:40.963Z,23.92
2022-12-17T07:09:26.196Z,31.63
2022-12-17T07:12:11.511Z,24.70
2022-12-17T07:14:56.717Z,27.85
2022-12-17T07:17:42.248Z,27.70
2022-12-17T07:20:28.460Z,28.60
2022-12-17T07:23:16.631Z,20.77
2022-12-17T07:26:01.976Z,26.40
2022-12-17T07:28:47.091Z,26.38
2022-12-17T07:31:32.597Z,31.08
2022-12-17T07:34:17.739Z,27.23
2022-12-17T07:37:03.019Z,29.85
2022-12-17T07:39:48.242Z,28.50
2022-12-17T07:42:33.575Z,32.72
2022-12-17T07:45:18.725Z,29.95
2022-12-17T07:48:12.066Z,34.20
2022-12-17T07:50:57.241Z,27.25
2022-12-17T07:53:42.354Z,26.88
2022-12-17T07:56:27.555Z,31.95
2022-12-17T07:59:12.702Z,36.33
2022-12-17T08:01:58.124Z,30.88
2022-12-17T08:04:43.261Z,32.15
2022-12-17T08:07:28.464Z,29.88
2022-12-17T08:10:13.424Z,28.80
2022-12-17T08:12:58.457Z,31.10
2022-12-17T08:15:43.619Z,30.98
2022-12-17T08:18:29.082Z,31.50
2022-12-17T08:21:14.336Z,30.02
2022-12-17T08:23:59.806Z,25.83
2022-12-17T08:26:48.111Z,31.85
2022-12-17T08:29:34.404Z,30.65
2022-12-17T08:32:19.522Z,25.92
2022-12-17T08:35:04.630Z,25.35
2022-12-17T08:37:49.732Z,25.95
2022-12-17T08:40:35.017Z,30.73
2022-12-17T08:43:20.296Z,25.98
2022-12-17T08:46:11.018Z,21.08
2022-12-17T08:48:57.333Z,23.67
2022-12-17T08:51:43.096Z,24.95
2022-12-17T08:54:28.859Z,22.33
2022-12-17T08:57:22.618Z,21.48
2022-12-17T09:00:16.321Z,26.42
2022-12-17T09:03:01.651Z,20.27
2022-12-17T09:05:46.974Z,23.98
2022-12-17T09:08:32.057Z,19.80
2022-12-17T09:11:20.196Z,20.88
2022-12-17T09:14:05.497Z,22.42
2022-12-17T09:16:50.626Z,25.38
2022-12-17T09:19:35.794Z,25.13
2022-12-17T09:22:20.988Z,27.30
2022-12-17T09:25:06.185Z,25.98
2022-12-17T09:27:51.254Z,26.00
2022-12-17T09:30:36.559Z,22.52
2022-12-17T09:33:21.832Z,27.15
2022-12-17T09:36:06.968Z,29.10
2022-12-17T09:38:52.116Z,21.33
2022-12-17T09:42:01.036Z,24.00
2022-12-17T09:45:18.385Z,25.02
2022-12-17T09:48:39.258Z,26.13
2022-12-17T09:51:24.473Z,21.70
2022-12-17T09:54:11.515Z,25.75
2022-12-17T09:56:59.206Z,28.98
2022-12-17T09:59:54.576Z,24.55
2022-12-17T10:02:45.126Z,24.27
2022-12-17T10:05:44.735Z,26.65
2022-12-17T10:08:34.828Z,25.42
2022-12-17T10:11:37.819Z,18.73
2022-12-17T10:14:46.821Z,20.25
2022-12-17T10:17:37.635Z,18.83
2022-12-17T10:20:37.428Z,19.52
2022-12-17T10:23:22.847Z,18.55
2022-12-17T10:26:15.499Z,27.83
2022-12-17T10:29:00.539Z,21.73
2022-12-17T10:31:48.964Z,23.20
2022-12-17T10:34:39.108Z,24.35
2022-12-17T10:37:25.312Z,21.63
2022-12-17T10:40:19.679Z,24.73
2022-12-17T10:43:06.015Z,30.55
2022-12-17T10:45:54.266Z,27.38
2022-12-17T10:48:49.639Z,30.33
2022-12-17T10:51:55.958Z,24.65
2022-12-17T10:54:53.491Z,28.88
2022-12-17T10:57:58.860Z,23.98
2022-12-17T11:00:58.952Z,26.23
2022-12-17T11:04:08.661Z,28.10
2022-12-17T11:06:59.540Z,27.98
2022-12-17T11:10:10.459Z,26.63
2022-12-17T11:13:04.911Z,33.47
2022-12-17T11:16:11.074Z,33.42
2022-12-17T11:19:30.090Z,31.85
2022-12-17T11:22:21.451Z,29.10
2022-12-17T11:25:56.714Z,31.17
2022-12-17T11:28:48.307Z,21.85
2022-12-17T11:32:03.427Z,26.00
2022-12-17T11:38:30.450Z,25.17
2022-12-17T11:41:42.583Z,30.35
2022-12-17T11:44:47.275Z,30.63
2022-12-17T11:48:13.271Z,27.23
2022-12-17T11:51:12.751Z,26.00
2022-12-17T11:54:24.166Z,24.75
2022-12-17T11:57:27.315Z,29.35
2022-12-17T12:00:25.671Z,22.73
2022-12-17T12:03:23.929Z,23.48
2022-12-17T12:06:17.289Z,26.50
2022-12-17T12:09:27.019Z,30.23
2022-12-17T12:12:31.060Z,24.98
2022-12-17T12:15:33.547Z,24.90
2022-12-17T12:18:53.288Z,27.63
2022-12-17T12:21:57.091Z,26.90
2022-12-17T12:25:04.475Z,24.58
2022-12-17T12:28:26.368Z,27.90
2022-12-17T12:31:42.095Z,30.70
2022-12-17T12:34:39.859Z,28.95
2022-12-17T12:37:26.692Z,22.13
2022-12-17T12:40:46.495Z,21.38
2022-12-17T12:44:09.176Z,20.85
2022-12-17T12:47:11.901Z,26.83
2022-12-17T12:50:13.051Z,20.40
2022-12-17T12:52:58.763Z,24.02
2022-12-17T12:55:57.271Z,20.23
2022-12-17T12:58:51.581Z,19.05
2022-12-17T13:01:38.687Z,21.33
2022-12-17T13:04:52.086Z,18.73
2022-12-17T13:07:29.330Z,17.42
2022-12-17T13:09:58.812Z,19.52
2022-12-17T13:13:20.391Z,17.80
2022-12-17T13:15:53.415Z,20.80
2022-12-17T13:18:40.950Z,20.57
2022-12-17T13:21:17.177Z,24.27
2022-12-17T13:23:44.316Z,17.95
2022-12-17T13:26:21.780Z,19.85
2022-12-17T13:29:02.269Z,16.90
2022-12-17T13:32:03.766Z,18.95
2022-12-17T13:34:57.836Z,18.58
2022-12-17T13:37:45.195Z,14.82
2022-12-17T13:41:10.181Z,15.82
2022-12-17T13:43:58.855Z,19.38
2022-12-17T13:46:48.052Z,20.65
2022-12-17T13:49:29.854Z,22.25
2022-12-17T13:52:17.538Z,19.35
2022-12-17T13:54:44.823Z,17.08
2022-12-17T13:57:25.269Z,19.20
2022-12-17T13:59:54.533Z,24.48
2022-12-17T14:02:31.897Z,25.40
2022-12-17T14:05:08.001Z,17.38
2022-12-17T14:07:39.043Z,18.75
2022-12-17T14:10:15.454Z,20.27
2022-12-17T14:12:42.447Z,22.27
2022-12-17T14:15:28.130Z,23.35
2022-12-17T14:17:56.719Z,19.60
2022-12-17T14:20:26.620Z,21.67
2022-12-17T14:23:03.910Z,21.75
2022-12-17T14:25:39.480Z,25.42
2022-12-17T14:28:38.428Z,25.13
2022-12-17T14:31:29.810Z,21.50
2022-12-17T14:34:10.839Z,20.05
2022-12-17T14:36:41.148Z,22.83
2022-12-17T14:39:33.056Z,22.63
2022-12-17T14:42:44.870Z,22.50
2022-12-17T14:45:14.537Z,24.20
2022-12-17T14:48:01.738Z,22.23
2022-12-17T14:50:35.391Z,28.00
2022-12-17T14:53:23.945Z,30.77
2022-12-17T14:55:58.499Z,24.27
2022-12-17T14:58:27.591Z,27.95
2022-12-17T15:01:16.198Z,29.35
2022-12-17T15:03:46.592Z,31.20
2022-12-17T15:06:20.216Z,24.70
2022-12-17T15:08:49.322Z,30.30
2022-12-17T15:11:22.022Z,29.75
2022-12-17T15:13:52.952Z,31.40
2022-12-17T15:16:23.294Z,32.45
2022-12-17T15:18:50.212Z,29.08
2022-12-17T15:21:18.459Z,33.60
2022-12-17T15:23:46.950Z,29.48
2022-12-17T15:26:15.140Z,32.70
2022-12-17T15:28:42.801Z,32.80
2022-12-17T15:31:12.627Z,44.53
2022-12-17T15:33:40.644Z,50.83
2022-12-17T15:36:09.185Z,37.08
2022-12-17T15:38:36.333Z,38.90
2022-12-17T15:41:25.586Z,35.80
2022-12-17T15:43:52.807Z,30.88
2022-12-17T15:46:19.676Z,33.78
2022-12-17T15:48:50.190Z,30.60
2022-12-17T15:51:19.942Z,34.15
2022-12-17T15:53:48.180Z,38.35
2022-12-17T15:56:21.990Z,32.42
2022-12-17T15:58:48.800Z,30.73
2022-12-17T16:01:15.868Z,32.22
2022-12-17T16:03:42.785Z,33.15
2022-12-17T16:06:10.353Z,32.95
2022-12-17T16:08:40.788Z,28.65
2022-12-17T16:11:09.940Z,34.67
2022-12-17T16:13:38.468Z,40.90
2022-12-17T16:16:06.942Z,52.50
2022-12-17T16:18:33.982Z,39.42
2022-12-17T16:21:08.809Z,41.38
2022-12-17T16:23:36.597Z,32.70
2022-12-17T16:26:06.648Z,38.95
2022-12-17T16:28:35.454Z,37.67
2022-12-17T16:31:07.703Z,35.65
2022-12-17T16:33:36.939Z,38.15
2022-12-17T16:36:06.012Z,37.38
2022-12-17T16:38:33.620Z,37.65
2022-12-17T16:41:03.261Z,34.70
2022-12-17T16:43:34.062Z,40.20
2022-12-17T16:46:01.441Z,40.25
2022-12-17T16:48:28.273Z,37.38
2022-12-17T16:50:55.091Z,36.28
2022-12-17T16:53:22.050Z,40.25
2022-12-17T16:55:49.948Z,41.90
2022-12-17T16:58:17.815Z,44.70
2022-12-17T17:00:46.078Z,41.92
2022-12-17T17:03:13.350Z,43.20
2022-12-17T17:05:40.425Z,45.55
2022-12-17T17:08:07.230Z,47.35
2022-12-17T17:10:36.741Z,41.35
2022-12-17T17:13:04.183Z,45.35
2022-12-17T17:15:31.601Z,43.47
2022-12-17T17:18:01.434Z,43.72
2022-12-17T17:20:32.127Z,45.92
2022-12-17T17:22:59.572Z,47.90
2022-12-17T17:25:43.954Z,48.03
2022-12-17T17:28:13.705Z,48.35
2022-12-17T17:30:40.501Z,40.65
2022-12-17T17:33:07.263Z,45.28
2022-12-17T17:35:34.038Z,40.35
2022-12-17T17:38:00.886Z,36.72
2022-12-17T17:40:27.710Z,40.22
2022-12-17T17:42:54.479Z,42.63
2022-12-17T17:45:21.286Z,40.70
2022-12-17T17:47:48.046Z,32.70
2022-12-17T17:50:14.827Z,36.60
2022-12-17T17:52:41.601Z,36.25
2022-12-17T17:55:08.467Z,38.30
2022-12-17T17:57:35.233Z,37.38
2022-12-17T18:00:02.725Z,37.97
2022-12-17T18:02:29.664Z,34.30
2022-12-17T18:04:56.601Z,36.72
2022-12-17T18:07:26.091Z,39.42
2022-12-17T18:09:54.479Z,41.60
2022-12-17T18:12:40.248Z,38.22
2022-12-17T18:15:16.809Z,37.95
2022-12-17T18:17:51.166Z,43.15
2022-12-17T18:20:18.788Z,38.85
2022-12-17T18:22:46.124Z,39.97
2022-12-17T18:25:13.373Z,36.10
2022-12-17T18:27:40.144Z,38.30
2022-12-17T18:30:08.269Z,38.35
2022-12-17T18:32:35.016Z,45.25
2022-12-17T18:35:01.822Z,38.17
2022-12-17T18:37:28.601Z,38.53
2022-12-17T18:39:55.366Z,40.75
2022-12-17T18:42:40.618Z,39.97
2022-12-17T18:45:07.922Z,40.97
2022-12-17T18:47:34.666Z,38.70
2022-12-17T18:50:01.439Z,36.85
2022-12-17T18:52:28.215Z,33.75
2022-12-17T18:54:54.979Z,36.00
2022-12-17T18:57:21.797Z,44.75
2022-12-17T18:59:49.176Z,37.45
2022-12-17T19:02:16.092Z,38.22
2022-12-17T19:04:43.202Z,32.85
2022-12-17T19:07:10.418Z,39.72
2022-12-17T19:09:39.418Z,40.88
2022-12-17T19:12:08.429Z,40.45
2022-12-17T19:14:35.303Z,44.22
2022-12-17T19:17:03.024Z,37.22
2022-12-17T19:19:29.793Z,51.50
2022-12-17T19:21:58.573Z,42.35
2022-12-17T19:24:25.481Z,45.15
2022-12-17T19:26:52.611Z,42.72
2022-12-17T19:29:20.796Z,39.22
2022-12-17T19:31:47.870Z,38.83
2022-12-17T19:34:17.200Z,43.28
2022-12-17T19:36:45.119Z,43.17
2022-12-17T19:39:18.652Z,43.65
2022-12-17T19:41:45.954Z,37.80
2022-12-17T19:44:15.854Z,43.67
2022-12-17T19:46:43.447Z,45.08
2022-12-17T19:49:15.400Z,40.42
2022-12-17T19:51:44.177Z,40.97
2022-12-17T19:54:13.747Z,41.20
2022-12-17T19:56:40.556Z,43.97
2022-12-17T19:59:09.910Z,37.15
2022-12-17T20:01:45.292Z,41.72
2022-12-17T20:04:14.618Z,41.22
2022-12-17T20:06:41.974Z,46.05
2022-12-17T20:09:08.968Z,46.20
2022-12-17T20:11:36.449Z,41.92
2022-12-17T20:14:12.095Z,39.97
2022-12-17T20:16:50.685Z,38.28
2022-12-17T20:19:26.887Z,38.70
2022-12-17T20:21:55.443Z,43.92
2022-12-17T20:24:28.853Z,42.70
2022-12-17T20:26:57.766Z,45.40
2022-12-17T20:29:25.385Z,37.30
2022-12-17T20:31:53.554Z,34.17
2022-12-17T20:34:20.726Z,36.95
2022-12-17T20:36:47.624Z,38.20
2022-12-17T20:39:14.431Z,33.83
2022-12-17T20:41:41.803Z,33.22
2022-12-17T20:44:13.175Z,37.45
2022-12-17T20:46:43.646Z,36.47
2022-12-17T20:49:12.289Z,41.20
2022-12-17T20:51:39.109Z,45.40
2022-12-17T20:54:08.175Z,44.05
2022-12-17T20:56:35.587Z,39.00
2022-12-17T20:59:08.608Z,45.47
2022-12-17T21:01:36.838Z,40.90
2022-12-17T21:04:07.267Z,32.97
2022-12-17T21:06:47.110Z,39.00
2022-12-17T21:09:15.962Z,35.35
2022-12-17T21:11:42.735Z,34.92
2022-12-17T21:14:13.932Z,35.17
2022-12-17T21:16:42.230Z,35.63
2022-12-17T21:19:12.901Z,34.35
2022-12-17T21:21:39.690Z,36.08
2022-12-17T21:24:08.155Z,36.03
2022-12-17T21:26:38.815Z,35.10
2022-12-17T21:29:07.887Z,38.25
2022-12-17T21:31:41.366Z,37.03
2022-12-17T21:34:12.855Z,33.17
2022-12-17T21:36:40.037Z,38.53
2022-12-17T21:39:09.425Z,39.38
2022-12-17T21:41:40.036Z,39.47
2022-12-17T21:44:12.722Z,38.13
2022-12-17T21:46:40.581Z,35.65
2022-12-17T21:49:07.423Z,35.58
2022-12-17T21:51:34.515Z,34.90
2022-12-17T21:54:08.181Z,34.35
2022-12-17T21:56:35.954Z,31.67
2022-12-17T21:59:02.745Z,36.17
2022-12-17T22:01:33.016Z,33.80
2022-12-17T22:04:04.125Z,33.78
2022-12-17T22:06:35.770Z,36.63
2022-12-17T22:09:18.801Z,34.10
2022-12-17T22:12:14.776Z,33.95
2022-12-17T22:14:41.604Z,34.28
2022-12-17T22:17:08.422Z,35.35
2022-12-17T22:19:35.249Z,35.72
2022-12-17T22:22:02.003Z,31.98
2022-12-17T22:24:29.344Z,30.40
2022-12-17T22:27:02.661Z,34.20
2022-12-17T22:29:47.829Z,31.98
2022-12-17T22:32:33.726Z,37.40
2022-12-17T22:36:24.402Z,30.65
2022-12-17T22:40:57.018Z,32.42
2022-12-17T22:44:34.957Z,34.75
2022-12-17T22:44:41.942Z,31.20
2022-12-17T22:46:16.572Z,33.85
2022-12-17T22:48:43.610Z,33.72
2022-12-17T22:51:15.157Z,30.70
2022-12-17T22:53:53.803Z,31.33
2022-12-17T22:56:49.450Z,29.15
2022-12-17T22:59:15.230Z,32.92
2022-12-17T23:01:42.034Z,30.20
2022-12-17T23:04:13.543Z,30.08
2022-12-17T23:06:41.488Z,37.40
2022-12-17T23:09:08.260Z,32.45
2022-12-17T23:11:35.176Z,36.75
2022-12-17T23:14:01.933Z,31.83
2022-12-17T23:16:28.870Z,34.33
2022-12-17T23:18:55.863Z,32.70
2022-12-17T23:21:26.211Z,30.02
2022-12-17T23:23:54.209Z,30.80
2022-12-17T23:26:24.865Z,32.83
2022-12-17T23:29:01.685Z,35.70
2022-12-17T23:31:33.691Z,26.80
2022-12-17T23:34:00.533Z,31.95
2022-12-17T23:36:28.032Z,32.50
2022-12-17T23:38:56.292Z,33.28
2022-12-17T23:41:27.127Z,31.63
2022-12-17T23:43:55.247Z,34.90
2022-12-17T23:46:23.949Z,32.10
2022-12-17T23:48:51.378Z,30.98
2022-12-17T23:51:20.897Z,31.48
2022-12-17T23:53:48.113Z,33.05
2022-12-17T23:56:23.806Z,29.30
2022-12-17T23:58:57.483Z,34.38
